createdAt,value
2023-04-16T00:00:10.557Z,0.70
2023-04-16T00:02:38.310Z,0.70
2023-04-16T00:05:05.172Z,0.75
2023-04-16T00:07:34.706Z,0.63
2023-04-16T00:10:12.159Z,0.80
2023-04-16T00:12:39.168Z,0.67
2023-04-16T00:15:06.125Z,0.45
2023-04-16T00:17:47.048Z,0.40
2023-04-16T00:20:14.201Z,0.40
2023-04-16T00:22:42.238Z,0.73
2023-04-16T00:25:09.079Z,0.40
2023-04-16T00:27:41.651Z,0.70
2023-04-16T00:30:09.451Z,0.80
2023-04-16T00:32:37.111Z,0.88
2023-04-16T00:35:06.667Z,0.60
2023-04-16T00:37:33.627Z,0.50
2023-04-16T00:40:01.142Z,0.50
2023-04-16T00:42:28.165Z,0.60
2023-04-16T00:44:54.551Z,0.30
2023-04-16T00:47:21.730Z,0.52
2023-04-16T00:49:48.586Z,0.40
2023-04-16T00:52:15.376Z,0.85
2023-04-16T00:54:41.913Z,0.65
2023-04-16T00:57:08.968Z,0.77
2023-04-16T00:59:35.607Z,0.77
2023-04-16T01:02:02.201Z,0.90
2023-04-16T01:04:31.018Z,0.57
2023-04-16T01:06:57.544Z,0.82
2023-04-16T01:09:24.019Z,1.10
2023-04-16T01:11:50.446Z,0.80
2023-04-16T01:14:16.891Z,0.90
2023-04-16T01:16:43.332Z,1.50
2023-04-16T01:19:09.913Z,1.00
2023-04-16T01:21:36.514Z,1.10
2023-04-16T01:24:04.637Z,1.10
2023-04-16T01:26:31.528Z,1.60
2023-04-16T01:28:59.796Z,1.65
2023-04-16T01:31:26.251Z,1.80
2023-04-16T01:33:52.727Z,1.48
2023-04-16T01:36:19.278Z,1.48
2023-04-16T01:38:45.903Z,1.03
2023-04-16T01:41:12.339Z,1.88
2023-04-16T01:43:40.279Z,1.65
2023-04-16T01:46:20.830Z,1.02
2023-04-16T01:48:47.311Z,2.33
2023-04-16T01:51:13.702Z,1.77
2023-04-16T01:53:40.114Z,1.50
2023-04-16T01:56:06.799Z,1.30
2023-04-16T01:58:34.005Z,2.05
2023-04-16T02:01:00.714Z,1.92
2023-04-16T02:03:27.458Z,2.07
2023-04-16T02:05:54.707Z,2.45
2023-04-16T02:08:21.185Z,2.15
2023-04-16T02:10:49.320Z,2.60
2023-04-16T02:13:16.566Z,2.13
2023-04-16T02:15:50.740Z,2.60
2023-04-16T02:18:17.432Z,2.67
2023-04-16T02:20:45.764Z,2.90
2023-04-16T02:23:14.967Z,2.38
2023-04-16T02:25:42.833Z,2.83
2023-04-16T02:28:10.881Z,2.20
2023-04-16T02:30:38.119Z,2.42
2023-04-16T02:33:07.331Z,2.90
2023-04-16T02:35:38.319Z,3.13
2023-04-16T02:38:05.768Z,3.13
2023-04-16T02:40:32.496Z,2.80
2023-04-16T02:42:58.955Z,2.95
2023-04-16T02:45:25.574Z,2.85
2023-04-16T02:47:52.702Z,3.17
2023-04-16T02:50:19.194Z,3.42
2023-04-16T02:52:45.834Z,3.20
2023-04-16T02:55:12.340Z,3.35
2023-04-16T02:57:38.833Z,3.10
2023-04-16T03:00:05.989Z,2.92
2023-04-16T03:02:32.723Z,3.38
2023-04-16T03:04:59.281Z,2.73
2023-04-16T03:07:26.075Z,3.03
2023-04-16T03:09:52.529Z,2.92
2023-04-16T03:12:18.924Z,3.88
2023-04-16T03:14:45.333Z,3.80
2023-04-16T03:17:12.091Z,3.20
2023-04-16T03:19:40.242Z,4.10
2023-04-16T03:22:09.546Z,4.55
2023-04-16T03:24:37.579Z,4.65
2023-04-16T03:27:07.125Z,5.38
2023-04-16T03:29:36.910Z,3.43
2023-04-16T03:32:06.313Z,4.65
2023-04-16T03:34:34.688Z,4.25
2023-04-16T03:37:23.221Z,3.25
2023-04-16T03:39:50.675Z,3.47
2023-04-16T03:42:18.067Z,4.17
2023-04-16T03:44:44.656Z,3.45
2023-04-16T03:47:14.201Z,3.85
2023-04-16T03:49:48.638Z,3.75
2023-04-16T03:52:17.583Z,4.05
2023-04-16T03:54:44.607Z,3.90
2023-04-16T03:57:11.156Z,3.03
2023-04-16T03:59:43.714Z,3.70
2023-04-16T04:02:12.172Z,3.38
2023-04-16T04:04:39.647Z,4.65
2023-04-16T04:07:09.168Z,4.53
2023-04-16T04:09:35.692Z,5.13
2023-04-16T04:12:07.362Z,3.25
2023-04-16T04:14:39.610Z,4.15
2023-04-16T04:17:12.113Z,4.97
2023-04-16T04:19:44.515Z,4.30
2023-04-16T04:22:22.676Z,5.45
2023-04-16T04:24:50.139Z,4.55
2023-04-16T04:27:17.543Z,5.45
2023-04-16T04:29:43.937Z,4.28
2023-04-16T04:32:12.079Z,5.30
2023-04-16T04:34:40.058Z,5.35
2023-04-16T04:37:09.027Z,4.82
2023-04-16T04:39:35.481Z,4.53
2023-04-16T04:42:08.376Z,3.83
2023-04-16T04:44:35.627Z,4.90
2023-04-16T04:47:03.129Z,4.47
2023-04-16T04:49:31.767Z,4.18
2023-04-16T04:52:00.101Z,3.75
2023-04-16T04:54:30.841Z,4.28
2023-04-16T04:56:58.220Z,4.07
2023-04-16T04:59:32.002Z,3.42
2023-04-16T05:02:00.340Z,3.78
2023-04-16T05:04:26.946Z,3.58
2023-04-16T05:06:55.048Z,4.15
2023-04-16T05:09:21.432Z,4.27
2023-04-16T05:11:50.744Z,4.65
2023-04-16T05:14:18.154Z,3.85
2023-04-16T05:16:45.607Z,4.45
2023-04-16T05:19:13.060Z,4.20
2023-04-16T05:21:41.081Z,4.27
2023-04-16T05:24:09.211Z,3.92
2023-04-16T05:26:35.823Z,4.53
2023-04-16T05:29:04.585Z,5.80
2023-04-16T05:31:32.647Z,4.85
2023-04-16T05:34:00.023Z,5.00
2023-04-16T05:36:29.006Z,4.35
2023-04-16T05:38:56.106Z,4.90
2023-04-16T05:41:22.702Z,5.07
2023-04-16T05:43:55.031Z,5.57
2023-04-16T05:46:23.120Z,4.43
2023-04-16T05:48:51.873Z,4.65
2023-04-16T05:51:19.481Z,4.03
2023-04-16T05:53:45.957Z,4.05
2023-04-16T05:56:23.340Z,5.40
2023-04-16T05:59:06.526Z,4.53
2023-04-16T06:01:34.520Z,5.85
2023-04-16T06:04:11.252Z,4.50
2023-04-16T06:06:37.980Z,4.45
2023-04-16T06:09:05.269Z,4.43
2023-04-16T06:11:54.547Z,5.43
2023-04-16T06:14:57.048Z,4.95
2023-04-16T06:17:27.132Z,4.10
2023-04-16T06:20:10.036Z,4.88
2023-04-16T06:22:39.180Z,4.80
2023-04-16T06:25:11.604Z,5.93
2023-04-16T06:27:50.432Z,5.13
2023-04-16T06:30:16.964Z,4.03
2023-04-16T06:32:44.443Z,5.07
2023-04-16T06:35:22.182Z,5.03
2023-04-16T06:37:49.720Z,5.07
2023-04-16T06:40:19.627Z,6.00
2023-04-16T06:43:05.242Z,5.28
2023-04-16T06:45:31.866Z,7.10
2023-04-16T06:47:59.135Z,6.85
2023-04-16T06:50:28.188Z,5.30
2023-04-16T06:52:55.245Z,5.32
2023-04-16T06:55:21.880Z,5.57
2023-04-16T06:57:48.468Z,5.68
2023-04-16T07:00:15.098Z,6.65
2023-04-16T07:02:42.640Z,5.50
2023-04-16T07:05:09.331Z,6.38
2023-04-16T07:07:36.625Z,6.38
2023-04-16T07:10:03.399Z,5.03
2023-04-16T07:12:31.576Z,5.22
2023-04-16T07:14:59.131Z,6.53
2023-04-16T07:17:34.770Z,6.95
2023-04-16T07:20:01.314Z,7.57
2023-04-16T07:22:28.518Z,6.63
2023-04-16T07:24:56.526Z,8.23
2023-04-16T07:27:23.101Z,7.10
2023-04-16T07:29:50.947Z,7.82
2023-04-16T07:32:18.174Z,6.63
2023-04-16T07:34:44.660Z,6.97
2023-04-16T07:37:11.211Z,6.38
2023-04-16T07:39:37.731Z,5.60
2023-04-16T07:42:04.246Z,6.82
2023-04-16T07:44:30.796Z,6.20
2023-04-16T07:46:57.250Z,6.50
2023-04-16T07:49:23.753Z,6.15
2023-04-16T07:51:50.267Z,5.93
2023-04-16T07:54:16.856Z,6.30
2023-04-16T07:56:43.757Z,5.35
2023-04-16T07:59:21.916Z,5.38
2023-04-16T08:01:50.004Z,5.35
2023-04-16T08:04:22.851Z,5.50
2023-04-16T08:06:49.561Z,4.82
2023-04-16T08:09:16.122Z,5.53
2023-04-16T08:11:42.885Z,4.68
2023-04-16T08:14:09.270Z,4.72
2023-04-16T08:16:35.800Z,4.87
2023-04-16T08:19:02.371Z,4.43
2023-04-16T08:21:29.294Z,3.85
2023-04-16T08:23:55.970Z,4.00
2023-04-16T08:26:22.377Z,3.30
2023-04-16T08:28:48.743Z,3.60
2023-04-16T08:31:15.761Z,3.55
2023-04-16T08:33:42.205Z,3.42
2023-04-16T08:36:09.130Z,3.97
2023-04-16T08:38:35.603Z,3.47
2023-04-16T08:41:05.674Z,3.50
2023-04-16T08:43:38.238Z,3.78
2023-04-16T08:46:05.784Z,3.38
2023-04-16T08:48:34.093Z,3.83
2023-04-16T08:51:01.903Z,2.92
2023-04-16T08:53:39.323Z,2.80
2023-04-16T08:56:09.526Z,3.28
2023-04-16T08:58:37.796Z,2.95
2023-04-16T09:01:04.638Z,2.85
2023-04-16T09:03:34.774Z,3.20
2023-04-16T09:06:04.409Z,2.50
2023-04-16T09:08:31.371Z,2.45
2023-04-16T09:10:59.416Z,2.78
2023-04-16T09:13:27.000Z,3.20
2023-04-16T09:15:54.304Z,3.28
2023-04-16T09:18:21.319Z,2.93
2023-04-16T09:20:49.788Z,3.25
2023-04-16T09:23:16.246Z,3.33
2023-04-16T09:25:42.900Z,3.08
2023-04-16T09:28:10.304Z,3.28
2023-04-16T09:30:37.535Z,3.13
2023-04-16T09:33:25.008Z,2.47
2023-04-16T09:35:52.934Z,2.58
2023-04-16T09:38:20.760Z,2.50
2023-04-16T09:40:47.634Z,2.70
2023-04-16T09:43:16.275Z,3.03
2023-04-16T09:45:49.020Z,2.53
2023-04-16T09:48:15.689Z,2.92
2023-04-16T09:50:51.727Z,2.10
2023-04-16T09:53:31.025Z,2.92
2023-04-16T09:55:58.990Z,2.60
2023-04-16T09:58:26.078Z,2.95
2023-04-16T10:00:57.400Z,3.78
2023-04-16T10:03:32.241Z,4.30
2023-04-16T10:06:19.737Z,3.33
2023-04-16T10:08:50.827Z,5.57
2023-04-16T10:11:19.355Z,3.08
2023-04-16T10:13:46.369Z,3.28
2023-04-16T10:16:13.178Z,3.08
2023-04-16T10:18:42.353Z,3.45
2023-04-16T10:21:11.948Z,4.13
2023-04-16T10:23:39.979Z,3.65
2023-04-16T10:26:06.792Z,4.80
2023-04-16T10:28:35.339Z,5.13
2023-04-16T10:31:05.606Z,4.40
2023-04-16T10:33:34.461Z,4.93
2023-04-16T10:36:09.756Z,5.05
2023-04-16T10:38:40.409Z,5.18
2023-04-16T10:41:08.701Z,4.75
2023-04-16T10:43:44.976Z,5.22
2023-04-16T10:46:20.572Z,4.80
2023-04-16T10:48:50.365Z,5.85
2023-04-16T10:51:36.466Z,5.65
2023-04-16T10:54:14.510Z,5.55
2023-04-16T10:56:40.974Z,4.57
2023-04-16T10:59:10.528Z,4.63
2023-04-16T11:01:42.356Z,4.97
2023-04-16T11:04:21.279Z,4.93
2023-04-16T11:07:15.409Z,5.78
2023-04-16T11:10:00.000Z,4.72
2023-04-16T11:12:29.933Z,4.70
2023-04-16T11:15:04.766Z,4.63
2023-04-16T11:17:39.510Z,3.70
2023-04-16T11:20:17.779Z,4.30
2023-04-16T11:22:57.268Z,3.95
2023-04-16T11:25:24.777Z,5.17
2023-04-16T11:27:52.045Z,4.75
2023-04-16T11:30:28.187Z,4.15
2023-04-16T11:32:54.803Z,4.25
2023-04-16T11:35:21.857Z,4.18
2023-04-16T11:37:48.739Z,4.73
2023-04-16T11:40:15.641Z,5.25
2023-04-16T11:42:42.784Z,4.88
2023-04-16T11:45:11.280Z,4.93
2023-04-16T11:47:51.765Z,6.18
2023-04-16T11:50:20.694Z,5.00
2023-04-16T11:52:48.052Z,5.20
2023-04-16T11:55:15.391Z,5.18
2023-04-16T11:57:41.842Z,5.18
2023-04-16T12:00:13.859Z,6.05
2023-04-16T12:02:50.894Z,5.20
2023-04-16T12:05:39.031Z,6.15
2023-04-16T12:08:08.599Z,5.97
2023-04-16T12:10:37.283Z,6.03
2023-04-16T12:13:12.607Z,4.82
2023-04-16T12:15:47.579Z,5.90
2023-04-16T12:18:16.219Z,5.10
2023-04-16T12:20:44.150Z,4.95
2023-04-16T12:23:27.847Z,5.10
2023-04-16T12:25:54.946Z,6.00
2023-04-16T12:28:36.578Z,4.53
2023-04-16T12:31:03.414Z,4.38
2023-04-16T12:33:30.432Z,4.70
2023-04-16T12:35:57.329Z,4.28
2023-04-16T12:38:25.365Z,4.22
2023-04-16T12:40:52.326Z,3.97
2023-04-16T12:43:19.796Z,4.13
2023-04-16T12:45:47.459Z,5.10
2023-04-16T12:48:13.918Z,4.47
2023-04-16T12:50:40.418Z,4.40
2023-04-16T12:53:07.054Z,4.35
2023-04-16T12:55:33.567Z,4.45
2023-04-16T12:58:00.010Z,4.00
2023-04-16T13:00:26.441Z,4.65
2023-04-16T13:02:53.039Z,4.05
2023-04-16T13:05:19.741Z,4.97
2023-04-16T13:07:46.485Z,4.80
2023-04-16T13:10:13.440Z,4.22
2023-04-16T13:12:39.985Z,5.57
2023-04-16T13:15:06.885Z,5.30
2023-04-16T13:17:33.270Z,5.83
2023-04-16T13:19:59.639Z,5.72
2023-04-16T13:22:26.119Z,6.13
2023-04-16T13:24:52.932Z,6.68
2023-04-16T13:27:20.395Z,6.22
2023-04-16T13:29:47.312Z,6.63
2023-04-16T13:32:14.917Z,5.68
2023-04-16T13:34:41.469Z,5.70
2023-04-16T13:37:07.929Z,6.20
2023-04-16T13:39:34.347Z,6.47
2023-04-16T13:42:01.010Z,6.47
2023-04-16T13:44:27.436Z,6.07
2023-04-16T13:46:53.924Z,6.30
2023-04-16T13:49:20.399Z,5.95
2023-04-16T13:51:46.951Z,5.80
2023-04-16T13:54:13.453Z,5.93
2023-04-16T13:56:40.804Z,5.85
2023-04-16T13:59:08.223Z,4.97
2023-04-16T14:01:34.906Z,5.75
2023-04-16T14:04:06.106Z,5.28
2023-04-16T14:06:33.884Z,4.18
2023-04-16T14:09:00.416Z,4.25
2023-04-16T14:11:26.868Z,5.50
2023-04-16T14:13:53.384Z,5.40
2023-04-16T14:16:19.933Z,5.20
2023-04-16T14:18:47.494Z,4.93
2023-04-16T14:21:14.803Z,6.10
2023-04-16T14:23:41.781Z,4.57
2023-04-16T14:26:08.301Z,5.97
2023-04-16T14:28:35.701Z,4.70
2023-04-16T14:31:02.379Z,4.68
2023-04-16T14:33:28.930Z,4.50
2023-04-16T14:35:55.537Z,4.45
2023-04-16T14:38:21.991Z,4.55
2023-04-16T14:40:48.670Z,4.50
2023-04-16T14:43:15.967Z,4.80
2023-04-16T14:45:42.521Z,4.93
2023-04-16T14:48:09.036Z,4.35
2023-04-16T14:50:38.964Z,4.78
2023-04-16T14:53:05.949Z,5.10
2023-04-16T14:55:32.612Z,4.80
2023-04-16T14:57:59.644Z,4.80
2023-04-16T15:00:26.388Z,4.90
2023-04-16T15:02:54.282Z,5.75
2023-04-16T15:05:21.167Z,4.15
2023-04-16T15:07:47.653Z,5.72
2023-04-16T15:10:14.096Z,5.60
2023-04-16T15:12:40.701Z,4.80
2023-04-16T15:15:08.476Z,5.07
2023-04-16T15:17:35.421Z,5.40
2023-04-16T15:20:02.089Z,5.40
2023-04-16T15:22:28.573Z,5.15
2023-04-16T15:24:55.026Z,4.78
2023-04-16T15:27:21.407Z,4.95
2023-04-16T15:29:49.473Z,5.00
2023-04-16T15:32:16.206Z,6.45
2023-04-16T15:34:42.747Z,5.10
2023-04-16T15:37:09.681Z,6.50
2023-04-16T15:39:36.260Z,4.72
2023-04-16T15:42:07.088Z,5.28
2023-04-16T15:44:34.422Z,5.32
2023-04-16T15:47:01.121Z,5.80
2023-04-16T15:49:27.559Z,6.05
2023-04-16T15:51:54.024Z,6.80
2023-04-16T15:54:21.498Z,6.75
2023-04-16T15:56:48.033Z,6.13
2023-04-16T15:59:14.528Z,6.40
2023-04-16T16:01:41.068Z,6.78
2023-04-16T16:04:08.196Z,6.63
2023-04-16T16:06:35.701Z,6.20
2023-04-16T16:09:02.147Z,5.97
2023-04-16T16:11:28.666Z,6.68
2023-04-16T16:13:55.270Z,5.47
2023-04-16T16:16:22.372Z,4.82
2023-04-16T16:18:48.926Z,7.43
2023-04-16T16:21:15.502Z,6.55
2023-04-16T16:23:42.047Z,6.30
2023-04-16T16:26:09.189Z,6.68
2023-04-16T16:28:37.821Z,6.93
2023-04-16T16:31:05.862Z,6.32
2023-04-16T16:33:33.050Z,6.63
2023-04-16T16:35:59.677Z,6.43
2023-04-16T16:38:26.180Z,6.88
2023-04-16T16:40:52.598Z,6.85
2023-04-16T16:43:20.292Z,5.72
2023-04-16T16:45:47.298Z,8.70
2023-04-16T16:48:13.904Z,13.93
2023-04-16T16:50:41.346Z,7.65
2023-04-16T16:53:07.966Z,6.72
2023-04-16T16:55:35.531Z,6.43
2023-04-16T16:58:02.149Z,6.43
2023-04-16T17:00:28.808Z,7.75
2023-04-16T17:02:55.481Z,6.43
2023-04-16T17:05:22.194Z,6.43
2023-04-16T17:07:48.676Z,6.40
2023-04-16T17:10:20.178Z,6.80
2023-04-16T17:12:48.695Z,6.85
2023-04-16T17:15:16.117Z,7.90
2023-04-16T17:17:43.239Z,6.25
2023-04-16T17:20:12.446Z,7.30
2023-04-16T17:22:39.766Z,7.67
2023-04-16T17:25:10.191Z,6.75
2023-04-16T17:27:36.810Z,7.10
2023-04-16T17:30:05.409Z,7.00
2023-04-16T17:32:32.890Z,6.80
2023-04-16T17:35:01.728Z,7.25
2023-04-16T17:37:28.527Z,7.25
2023-04-16T17:39:56.023Z,6.95
2023-04-16T17:42:22.869Z,7.15
2023-04-16T17:44:49.664Z,6.60
2023-04-16T17:47:16.237Z,6.30
2023-04-16T17:49:42.951Z,6.88
2023-04-16T17:52:09.490Z,7.25
2023-04-16T17:54:35.944Z,6.95
2023-04-16T17:57:02.386Z,7.07
2023-04-16T17:59:29.043Z,7.23
2023-04-16T18:01:56.599Z,7.25
2023-04-16T18:04:23.372Z,7.28
2023-04-16T18:06:50.368Z,7.93
2023-04-16T18:09:16.914Z,6.82
2023-04-16T18:11:45.827Z,7.23
2023-04-16T18:14:16.706Z,6.20
2023-04-16T18:16:43.453Z,6.85
2023-04-16T18:19:10.010Z,6.07
2023-04-16T18:21:36.522Z,7.63
2023-04-16T18:24:03.494Z,7.47
2023-04-16T18:26:30.297Z,8.43
2023-04-16T18:28:57.033Z,8.35
2023-04-16T18:31:23.605Z,9.20
2023-04-16T18:33:57.611Z,8.13
2023-04-16T18:36:26.441Z,8.57
2023-04-16T18:39:01.496Z,9.02
2023-04-16T18:41:29.425Z,8.45
2023-04-16T18:43:56.010Z,8.95
2023-04-16T18:46:22.666Z,9.68
2023-04-16T18:48:49.158Z,9.70
2023-04-16T18:51:16.482Z,8.32
2023-04-16T18:53:45.292Z,9.57
2023-04-16T18:56:11.862Z,9.48
2023-04-16T18:58:41.373Z,9.90
2023-04-16T19:01:11.263Z,9.70
2023-04-16T19:03:38.215Z,9.10
2023-04-16T19:06:05.220Z,9.95
2023-04-16T19:08:31.743Z,9.60
2023-04-16T19:10:58.341Z,8.95
2023-04-16T19:13:24.867Z,9.93
2023-04-16T19:15:51.390Z,9.63
2023-04-16T19:18:17.881Z,9.25
2023-04-16T19:20:44.366Z,10.25
2023-04-16T19:23:11.502Z,9.40
2023-04-16T19:25:39.514Z,11.23
2023-04-16T19:28:06.117Z,8.88
2023-04-16T19:30:32.707Z,8.70
2023-04-16T19:32:59.248Z,8.73
2023-04-16T19:35:25.948Z,9.15
2023-04-16T19:37:52.551Z,10.30
2023-04-16T19:40:19.164Z,8.85
2023-04-16T19:42:45.876Z,10.45
2023-04-16T19:45:12.415Z,9.55
2023-04-16T19:47:39.092Z,10.15
2023-04-16T19:50:06.440Z,9.13
2023-04-16T19:52:38.642Z,9.38
2023-04-16T19:55:06.576Z,9.45
2023-04-16T19:57:33.886Z,11.23
2023-04-16T20:00:00.493Z,10.05
2023-04-16T20:02:27.409Z,8.73
2023-04-16T20:04:54.091Z,9.43
2023-04-16T20:07:20.587Z,11.15
2023-04-16T20:09:47.170Z,11.32
2023-04-16T20:12:14.233Z,10.43
2023-04-16T20:14:41.971Z,11.00
2023-04-16T20:17:10.056Z,10.77
2023-04-16T20:19:40.604Z,10.63
2023-04-16T20:22:07.815Z,10.73
2023-04-16T20:24:34.376Z,8.23
2023-04-16T20:27:01.670Z,10.73
2023-04-16T20:29:28.387Z,9.85
2023-04-16T20:31:54.849Z,9.60
2023-04-16T20:34:21.382Z,9.68
2023-04-16T20:36:48.054Z,10.63
2023-04-16T20:39:14.736Z,10.83
2023-04-16T20:41:44.322Z,9.48
2023-04-16T20:44:17.983Z,10.63
2023-04-16T20:46:49.665Z,11.32
2023-04-16T20:49:17.631Z,10.45
2023-04-16T20:51:44.806Z,11.00
2023-04-16T20:54:11.521Z,11.18
2023-04-16T20:56:38.070Z,11.88
2023-04-16T20:59:05.611Z,11.60
2023-04-16T21:01:34.016Z,12.65
2023-04-16T21:04:01.535Z,11.93
2023-04-16T21:06:28.203Z,11.90
2023-04-16T21:08:54.841Z,10.52
2023-04-16T21:11:21.437Z,11.05
2023-04-16T21:13:48.002Z,11.80
2023-04-16T21:16:14.645Z,11.67
2023-04-16T21:18:41.511Z,11.30
2023-04-16T21:21:08.086Z,11.90
2023-04-16T21:23:34.630Z,10.85
2023-04-16T21:26:01.251Z,11.75
2023-04-16T21:28:27.670Z,10.20
2023-04-16T21:30:54.212Z,9.63
2023-04-16T21:33:20.827Z,10.15
2023-04-16T21:35:54.035Z,10.68
2023-04-16T21:38:21.911Z,9.65
2023-04-16T21:40:54.101Z,10.03
2023-04-16T21:43:20.803Z,10.35
2023-04-16T21:45:47.357Z,10.15
2023-04-16T21:48:15.373Z,10.73
2023-04-16T21:50:41.830Z,10.38
2023-04-16T21:53:08.372Z,10.40
2023-04-16T21:55:36.202Z,8.85
2023-04-16T21:58:03.820Z,10.77
2023-04-16T22:00:30.317Z,9.95
2023-04-16T22:02:59.973Z,10.02
2023-04-16T22:05:26.712Z,9.40
2023-04-16T22:07:53.192Z,9.90
2023-04-16T22:10:19.704Z,10.77
2023-04-16T22:12:46.482Z,11.10
2023-04-16T22:15:13.921Z,10.20
2023-04-16T22:17:40.918Z,10.77
2023-04-16T22:20:14.561Z,10.85
2023-04-16T22:22:42.059Z,12.20
2023-04-16T22:25:09.750Z,12.88
2023-04-16T22:27:36.603Z,11.98
2023-04-16T22:30:04.024Z,11.43
2023-04-16T22:32:30.942Z,12.85
2023-04-16T22:34:57.675Z,11.40
2023-04-16T22:37:24.447Z,11.63
2023-04-16T22:39:51.310Z,11.48
2023-04-16T22:42:17.754Z,11.33
2023-04-16T22:44:44.270Z,11.52
2023-04-16T22:47:10.797Z,11.80
2023-04-16T22:49:37.266Z,11.65
2023-04-16T22:52:04.119Z,11.63
2023-04-16T22:54:31.072Z,11.10
2023-04-16T22:56:57.964Z,11.88
2023-04-16T22:59:24.949Z,12.43
2023-04-16T23:01:51.893Z,13.13
2023-04-16T23:04:18.540Z,12.93
2023-04-16T23:06:45.036Z,12.70
2023-04-16T23:09:11.697Z,12.07
2023-04-16T23:11:38.272Z,12.75
2023-04-16T23:14:05.328Z,14.00
2023-04-16T23:16:31.960Z,13.82
2023-04-16T23:18:58.827Z,12.97
2023-04-16T23:21:25.915Z,11.82
2023-04-16T23:23:53.294Z,11.70
2023-04-16T23:26:20.257Z,13.23
2023-04-16T23:28:46.879Z,12.65
2023-04-16T23:31:13.447Z,13.47
2023-04-16T23:33:40.118Z,13.90
2023-04-16T23:36:07.269Z,12.85
2023-04-16T23:38:33.736Z,13.38
2023-04-16T23:41:00.374Z,13.15
2023-04-16T23:43:27.193Z,15.23
2023-04-16T23:45:54.407Z,13.63
2023-04-16T23:48:21.262Z,13.30
2023-04-16T23:50:47.946Z,13.35
2023-04-16T23:53:14.956Z,12.68
2023-04-16T23:55:41.671Z,12.30
2023-04-16T23:58:08.254Z,13.85
